Time;durP1;ratioP1;P1;durP2;ratioP2;P2;SDS_P1;SDS_P2;PMS_P1;PMS_P2;Temp;Humidity;BMP_temperature;BMP_pressure;BME280_temperature;BME280_humidity;BME280_pressure;Samples;Min_cycle;Max_cycle;Signal;HPM_P1;HPM_P2
2022/02/07 00:02:18;;;;;;;15.68;14.18;;;;;;;2.32;100.00;96210.56;5034839;28;20040;-63
2022/02/07 00:04:46;;;;;;;17.05;15.23;;;;;;;2.27;100.00;96216.84;5055217;28;20136;-63
2022/02/07 00:07:16;;;;;;;19.67;17.38;;;;;;;2.22;100.00;96215.44;5056124;28;20542;-63
2022/02/07 00:09:42;;;;;;;24.70;18.27;;;;;;;2.22;100.00;96216.25;5056680;28;20570;-63
2022/02/07 00:12:08;;;;;;;18.42;16.23;;;;;;;2.23;100.00;96214.50;5052629;28;20044;-63
2022/02/07 00:14:33;;;;;;;13.32;11.18;;;;;;;2.36;100.00;96222.53;5054189;28;20037;-63
2022/02/07 00:16:58;;;;;;;12.07;10.88;;;;;;;2.39;100.00;96224.97;5054072;28;20095;-63
2022/02/07 00:19:27;;;;;;;10.18;9.27;;;;;;;2.38;100.00;96218.06;5057087;28;20040;-63
2022/02/07 00:21:52;;;;;;;11.23;10.13;;;;;;;2.40;100.00;96237.84;5058737;28;20400;-63
2022/02/07 00:24:18;;;;;;;10.77;9.70;;;;;;;2.44;100.00;96241.16;5055127;28;20052;-63
2022/02/07 00:26:43;;;;;;;14.98;13.57;;;;;;;2.42;100.00;96228.22;5051215;28;20040;-63
2022/02/07 00:29:09;;;;;;;14.98;13.55;;;;;;;2.45;100.00;96229.00;5054159;28;20095;-63
2022/02/07 00:31:35;;;;;;;16.05;13.52;;;;;;;2.53;100.00;96242.44;5057428;28;20043;-63
2022/02/07 00:34:00;;;;;;;15.43;13.88;;;;;;;2.45;100.00;96242.81;5054218;28;20052;-63
2022/02/07 00:36:26;;;;;;;16.08;13.57;;;;;;;2.37;100.00;96232.00;5058864;28;20072;-63
2022/02/07 00:38:58;;;;;;;16.60;13.32;;;;;;;2.41;100.00;96231.72;5049902;28;20443;-63
2022/02/07 00:41:32;;;;;;;14.82;13.15;;;;;;;2.37;100.00;96219.00;5054659;28;20116;-63
2022/02/07 00:43:59;;;;;;;15.23;13.63;;;;;;;2.37;100.00;96209.44;5052432;28;20049;-63
2022/02/07 00:46:33;;;;;;;14.15;12.13;;;;;;;2.37;100.00;96206.00;5052712;28;20047;-63
2022/02/07 00:48:59;;;;;;;13.93;12.48;;;;;;;2.39;100.00;96191.16;5054794;28;20068;-63
2022/02/07 00:51:24;;;;;;;14.10;12.73;;;;;;;2.43;100.00;96179.69;5051292;28;20028;-63
2022/02/07 00:53:51;;;;;;;11.75;10.75;;;;;;;2.43;100.00;96171.91;5054424;28;20040;-63
2022/02/07 00:56:16;;;;;;;13.10;11.90;;;;;;;2.42;100.00;96168.44;5051958;28;20045;-61
2022/02/07 00:58:42;;;;;;;15.27;13.68;;;;;;;2.48;100.00;96164.69;5053614;28;20067;-60
2022/02/07 01:01:08;;;;;;;14.80;13.45;;;;;;;2.51;100.00;96164.53;5050365;28;20044;-63
2022/02/07 01:03:33;;;;;;;13.98;12.70;;;;;;;2.66;100.00;96154.25;5052845;28;20037;-63
2022/02/07 01:05:59;;;;;;;15.65;14.15;;;;;;;2.76;100.00;96142.41;5053896;28;20037;-60
2022/02/07 01:08:37;;;;;;;14.75;13.13;;;;;;;2.91;100.00;96139.91;5054575;28;20539;-62
2022/02/07 01:11:12;;;;;;;14.98;13.55;;;;;;;2.64;100.00;96156.09;5050570;28;20048;-63
2022/02/07 01:46:13;;;;;;;12.90;11.80;;;;;;;2.62;100.00;96153.56;5054108;28;20040;-60
2022/02/07 01:55:56;;;;;;;11.27;10.27;;;;;;;2.64;100.00;96148.28;5050407;28;20049;-63
2022/02/07 01:58:23;;;;;;;11.20;9.93;;;;;;;2.57;100.00;96135.63;5051407;28;20039;-63
2022/02/07 02:00:49;;;;;;;10.70;9.70;;;;;;;2.55;100.00;96134.03;5054995;28;20458;-60
2022/02/07 02:03:14;;;;;;;9.80;8.90;;;;;;;2.58;100.00;96128.66;5050099;28;20088;-61
2022/02/07 02:05:40;;;;;;;10.52;9.43;;;;;;;2.58;100.00;96107.84;5051590;28;20127;-61
2022/02/07 02:08:06;;;;;;;12.25;11.02;;;;;;;2.55;100.00;96103.69;5054841;28;20514;-63
2022/02/07 02:10:31;;;;;;;10.48;9.50;;;;;;;2.63;100.00;96108.44;5057163;28;20049;-63
2022/02/07 02:13:05;;;;;;;11.15;9.60;;;;;;;2.61;100.00;96106.88;5050305;28;20114;-63
2022/02/07 02:47:54;;;;;;;11.90;10.80;;;;;;;2.83;100.00;96085.72;5053095;28;20086;-62
2022/02/07 02:50:28;;;;;;;11.57;10.20;;;;;;;2.87;100.00;96089.81;5055237;28;20044;-63
2022/02/07 02:52:56;;;;;;;12.73;7.72;;;;;;;2.92;100.00;96073.97;5050610;28;20044;-62
2022/02/07 02:55:21;;;;;;;7.15;6.47;;;;;;;2.95;100.00;96073.78;5049387;28;20073;-63
2022/02/07 02:57:47;;;;;;;8.02;7.30;;;;;;;2.95;100.00;96066.84;5049415;28;20076;-63
2022/02/07 03:00:13;;;;;;;6.93;6.28;;;;;;;3.04;100.00;96062.88;5037716;28;20044;-63
2022/02/07 03:02:38;;;;;;;8.40;7.70;;;;;;;3.39;100.00;96067.00;5049041;28;20045;-62
2022/02/07 03:05:04;;;;;;;9.32;8.43;;;;;;;3.22;100.00;96073.19;5051249;28;20484;-63
2022/02/07 03:07:29;;;;;;;7.60;6.90;;;;;;;3.07;100.00;96078.31;5051390;28;20045;-62
2022/02/07 03:09:57;;;;;;;7.97;7.28;;;;;;;3.30;100.00;96081.38;5055921;28;20045;-63
2022/02/07 03:12:23;;;;;;;8.85;7.88;;;;;;;3.20;100.00;96072.41;5050344;28;20044;-62
2022/02/07 03:14:49;;;;;;;8.43;7.72;;;;;;;3.11;100.00;96066.81;5055803;28;20052;-63
2022/02/07 03:17:15;;;;;;;8.38;7.68;;;;;;;3.05;100.00;96074.97;5054287;28;20068;-63
2022/02/07 03:19:41;;;;;;;6.68;6.07;;;;;;;3.05;100.00;96080.19;5052946;28;20492;-62
2022/02/07 03:22:07;;;;;;;5.35;4.85;;;;;;;3.21;100.00;96089.72;5055539;28;20052;-63
2022/02/07 03:24:34;;;;;;;5.15;4.75;;;;;;;3.24;100.00;96073.94;5053401;28;20037;-63
2022/02/07 03:26:59;;;;;;;6.57;5.63;;;;;;;3.19;100.00;96074.19;5053649;28;20491;-63
2022/02/07 03:29:25;;;;;;;5.57;5.07;;;;;;;3.14;100.00;96074.44;5051180;28;20099;-63
2022/02/07 03:31:50;;;;;;;7.63;5.50;;;;;;;3.24;100.00;96079.13;5034644;28;20055;-63
2022/02/07 03:34:16;;;;;;;5.60;5.20;;;;;;;3.23;100.00;96082.66;5053447;28;20036;-63
2022/02/07 03:36:42;;;;;;;5.50;5.10;;;;;;;3.41;100.00;96092.00;5052874;28;20032;-63
2022/02/07 03:39:08;;;;;;;5.60;5.10;;;;;;;3.46;100.00;96083.94;5052659;28;20090;-63
2022/02/07 03:41:36;;;;;;;5.22;4.82;;;;;;;3.45;100.00;96092.69;5052928;28;20044;-63
2022/02/07 03:44:02;;;;;;;6.55;5.28;;;;;;;3.39;100.00;96087.84;5052648;28;20068;-63
2022/02/07 03:46:27;;;;;;;6.28;5.78;;;;;;;3.34;100.00;96088.09;5052633;28;20071;-63
2022/02/07 03:48:52;;;;;;;6.10;5.60;;;;;;;3.36;100.00;96099.25;5034435;28;20044;-63
2022/02/07 03:51:18;;;;;;;11.35;7.88;;;;;;;3.35;100.00;96089.75;5052222;28;20526;-63
2022/02/07 03:53:43;;;;;;;11.55;9.15;;;;;;;3.33;100.00;96078.59;5052543;28;20162;-63
2022/02/07 03:56:08;;;;;;;18.98;16.58;;;;;;;3.29;100.00;96077.94;5050791;28;20048;-63
2022/02/07 03:58:34;;;;;;;10.00;7.68;;;;;;;3.32;100.00;96065.69;5052401;28;20107;-63
2022/02/07 04:01:00;;;;;;;5.93;4.95;;;;;;;3.64;100.00;96071.59;5052270;28;20075;-63
2022/02/07 04:03:28;;;;;;;5.15;4.75;;;;;;;3.55;100.00;96070.41;5052256;28;20033;-63
2022/02/07 04:06:01;;;;;;;5.88;5.47;;;;;;;3.52;100.00;96069.75;5051438;28;20033;-63
2022/02/07 04:08:37;;;;;;;8.18;7.38;;;;;;;3.54;100.00;96071.34;5052428;28;20032;-63
2022/02/07 04:13:34;;;;;;;5.40;4.90;;;;;;;3.70;100.00;96083.44;5052160;28;20102;-62
2022/02/07 04:16:01;;;;;;;4.70;4.30;;;;;;;3.85;100.00;96084.31;5052000;28;20504;-62
2022/02/07 04:18:32;;;;;;;5.20;4.90;;;;;;;3.78;100.00;96078.63;5052153;28;20037;-62
2022/02/07 04:20:57;;;;;;;6.00;5.50;;;;;;;3.64;100.00;96089.84;5051284;28;20036;-62
2022/02/07 04:23:23;;;;;;;7.03;6.38;;;;;;;3.54;100.00;96096.53;5032514;28;20090;-62
2022/02/07 04:25:49;;;;;;;5.28;4.78;;;;;;;3.50;100.00;96090.66;5051640;28;20492;-63
2022/02/07 04:28:17;;;;;;;4.80;4.50;;;;;;;3.47;100.00;96090.00;5051692;28;20044;-63
2022/02/07 04:30:42;;;;;;;4.25;3.95;;;;;;;3.47;100.00;96100.41;5051643;28;20045;-63
2022/02/07 04:33:08;;;;;;;4.22;3.92;;;;;;;3.50;100.00;96101.06;5051809;28;20628;-63
2022/02/07 04:35:33;;;;;;;4.55;4.25;;;;;;;3.57;100.00;96098.94;5051585;28;20056;-63
2022/02/07 04:37:59;;;;;;;5.85;5.38;;;;;;;3.57;100.00;96096.34;5051152;28;20219;-63
2022/02/07 04:40:24;;;;;;;5.07;4.68;;;;;;;3.51;100.00;96092.31;5051527;28;20071;-63
2022/02/07 04:42:50;;;;;;;5.47;5.07;;;;;;;3.76;100.00;96077.03;5051977;28;20454;-62
2022/02/07 04:55:44;;;;;;;8.63;7.93;;;;;;;3.43;100.00;96068.50;5051149;28;20116;-61
2022/02/07 05:03:24;;;;;;;4.93;4.63;;;;;;;3.78;100.00;96093.41;5051360;28;19924;-61
2022/02/07 05:16:08;;;;;;;4.78;4.47;;;;;;;3.66;100.00;96090.63;5049483;28;20191;-61
2022/02/07 05:18:33;;;;;;;4.38;4.07;;;;;;;3.75;100.00;96084.00;5048201;28;20040;-60
2022/02/07 05:20:59;;;;;;;4.63;4.22;;;;;;;3.68;100.00;96086.16;5050915;28;20416;-60
2022/02/07 05:23:24;;;;;;;5.38;4.88;;;;;;;3.66;100.00;96085.41;5050616;28;20048;-60
2022/02/07 05:25:50;;;;;;;6.10;4.75;;;;;;;3.63;100.00;96098.56;5050617;28;20035;-61
2022/02/07 05:28:15;;;;;;;4.82;4.43;;;;;;;3.58;100.00;96103.22;5050804;28;20041;-60
2022/02/07 05:30:42;;;;;;;5.00;4.60;;;;;;;3.56;100.00;96110.28;5050703;28;20110;-61
2022/02/07 05:33:08;;;;;;;4.30;3.88;;;;;;;3.54;100.00;96106.94;5051142;28;20052;-60
2022/02/07 05:35:33;;;;;;;5.07;4.78;;;;;;;3.63;100.00;96113.38;5050591;28;20029;-60
2022/02/07 05:37:59;;;;;;;4.70;4.30;;;;;;;3.59;100.00;96120.53;5050611;28;20048;-61
2022/02/07 05:42:55;;;;;;;4.32;3.92;;;;;;;3.63;100.00;96121.19;5050344;28;20047;-60
2022/02/07 05:45:21;;;;;;;4.03;3.83;;;;;;;3.63;100.00;96127.22;5050493;28;20490;-61
2022/02/07 05:47:46;;;;;;;4.80;4.03;;;;;;;3.61;100.00;96131.69;5050631;28;20487;-61
2022/02/07 05:50:12;;;;;;;4.40;4.10;;;;;;;3.61;100.00;96136.88;5050807;28;20037;-61
2022/02/07 05:52:37;;;;;;;3.83;3.60;;;;;;;3.63;100.00;96148.06;5050435;28;20041;-61
2022/02/07 05:55:03;;;;;;;4.47;4.18;;;;;;;3.64;100.00;96154.13;5050207;28;20420;-61
2022/02/07 05:57:28;;;;;;;4.32;4.03;;;;;;;3.62;100.00;96177.63;5050417;28;20084;-61
2022/02/07 05:59:54;;;;;;;5.05;4.65;;;;;;;3.87;100.00;96194.47;5050756;28;20033;-61
2022/02/07 06:02:19;;;;;;;5.45;5.03;;;;;;;3.87;100.00;96192.69;5044995;28;20037;-61
2022/02/07 06:04:44;;;;;;;16.42;13.48;;;;;;;3.87;100.00;96195.31;5050578;28;20044;-61
2022/02/07 06:07:10;;;;;;;11.80;8.70;;;;;;;3.79;100.00;96215.75;5050616;28;20033;-61
2022/02/07 06:09:35;;;;;;;8.18;7.32;;;;;;;3.82;100.00;96227.75;5050297;28;20033;-61
2022/02/07 06:12:00;;;;;;;7.60;6.80;;;;;;;3.96;100.00;96225.19;5049777;28;20539;-61
2022/02/07 06:14:26;;;;;;;6.82;6.13;;;;;;;4.16;100.00;96225.81;5048343;28;21214;-60
2022/02/07 06:16:51;;;;;;;7.55;6.30;;;;;;;3.85;100.00;96223.22;5048606;28;20085;-60
2022/02/07 06:19:17;;;;;;;7.57;6.90;;;;;;;3.80;100.00;96237.41;5050222;28;20029;-61
2022/02/07 06:21:43;;;;;;;6.78;6.18;;;;;;;3.73;100.00;96236.91;5048659;28;20041;-60
2022/02/07 06:24:08;;;;;;;6.68;6.07;;;;;;;3.75;100.00;96240.28;5048629;28;20029;-60
2022/02/07 06:26:34;;;;;;;4.95;4.55;;;;;;;3.75;100.00;96239.44;5048397;28;20108;-61
2022/02/07 06:29:00;;;;;;;6.07;5.68;;;;;;;3.73;100.00;96252.53;5050517;28;20044;-60
2022/02/07 06:31:26;;;;;;;5.55;5.15;;;;;;;3.72;100.00;96250.88;5048135;28;20037;-60
2022/02/07 06:33:51;;;;;;;11.82;10.63;;;;;;;3.73;100.00;96265.56;5048553;28;20515;-61
2022/02/07 06:36:17;;;;;;;12.45;11.25;;;;;;;3.75;100.00;96255.91;5048810;28;20033;-60
2022/02/07 06:38:43;;;;;;;8.02;7.35;;;;;;;3.85;100.00;96261.44;5048060;28;20037;-60
2022/02/07 06:41:09;;;;;;;6.57;6.05;;;;;;;3.84;100.00;96270.16;5049295;28;20029;-60
2022/02/07 06:43:34;;;;;;;6.10;5.55;;;;;;;3.79;100.00;96272.19;5048605;28;20120;-60
2022/02/07 06:46:00;;;;;;;6.85;5.75;;;;;;;3.83;100.00;96274.56;5049992;28;20025;-61
2022/02/07 06:48:26;;;;;;;10.60;9.80;;;;;;;3.96;100.00;96285.13;5053360;28;20036;-61
2022/02/07 06:50:51;;;;;;;7.80;7.10;;;;;;;3.95;100.00;96288.66;5052574;28;20413;-61
2022/02/07 06:53:17;;;;;;;6.40;5.80;;;;;;;4.01;100.00;96295.28;5052403;28;20116;-63
2022/02/07 06:55:42;;;;;;;7.03;6.40;;;;;;;3.96;100.00;96303.38;5051015;28;20043;-64
2022/02/07 06:58:08;;;;;;;7.47;6.35;;;;;;;3.97;100.00;96317.22;5051958;28;20507;-64
2022/02/07 07:00:34;;;;;;;4.00;3.70;;;;;;;4.22;100.00;96326.28;5050095;28;20041;-63
2022/02/07 07:02:59;;;;;;;1.30;1.30;;;;;;;4.40;100.00;96327.81;5051954;28;20045;-62
2022/02/07 07:05:24;;;;;;;1.20;1.20;;;;;;;4.63;100.00;96335.25;5033561;28;20098;-65
2022/02/07 07:07:50;;;;;;;1.67;1.50;;;;;;;4.65;100.00;96349.91;5032903;28;20045;-65
2022/02/07 07:10:17;;;;;;;1.30;1.30;;;;;;;4.68;100.00;96360.16;5049164;28;20120;-64
2022/02/07 07:12:45;;;;;;;1.35;1.35;;;;;;;4.56;100.00;96369.53;5053112;28;20041;-63
2022/02/07 07:15:15;;;;;;;2.00;1.83;;;;;;;4.47;100.00;96367.44;5053240;28;20539;-63
2022/02/07 07:17:40;;;;;;;1.90;1.73;;;;;;;4.47;100.00;96369.22;5052847;28;20127;-63
2022/02/07 07:20:08;;;;;;;1.30;1.30;;;;;;;4.47;100.00;96359.59;5052939;28;20473;-64
2022/02/07 07:22:34;;;;;;;1.83;1.73;;;;;;;4.41;100.00;96362.56;5052804;28;20037;-64
2022/02/07 07:25:00;;;;;;;1.25;1.20;;;;;;;4.57;96.50;96383.38;5052925;28;20033;-63
2022/02/07 07:27:30;;;;;;;1.27;1.15;;;;;;;4.53;96.03;96382.75;5053097;28;20041;-63
2022/02/07 07:29:56;;;;;;;1.30;1.30;;;;;;;4.44;97.59;96394.53;5052512;28;20044;-63
2022/02/07 07:32:25;;;;;;;1.60;1.50;;;;;;;4.49;97.98;96407.28;5052685;28;20033;-63
2022/02/07 07:34:51;;;;;;;1.80;1.70;;;;;;;4.32;100.00;96429.09;5052824;28;20124;-63
2022/02/07 07:37:16;;;;;;;1.40;1.30;;;;;;;4.49;100.00;96422.94;5053315;28;20108;-63
2022/02/07 07:39:42;;;;;;;1.17;1.17;;;;;;;4.50;95.98;96427.22;5052412;28;20036;-64
2022/02/07 07:42:09;;;;;;;2.00;1.90;;;;;;;4.56;95.17;96444.31;5052621;28;20047;-61
2022/02/07 07:44:36;;;;;;;2.20;2.10;;;;;;;4.49;96.85;96453.41;5052784;28;20579;-60
2022/02/07 07:47:09;;;;;;;2.83;2.63;;;;;;;4.48;97.49;96459.53;5052654;28;20029;-60
2022/02/07 07:50:09;;;;;;;3.00;2.58;;;;;;;4.40;99.62;96473.81;5052444;28;20039;-60
2022/02/07 07:52:32;;;;;;;4.45;4.03;;;;;;;4.25;100.00;96478.13;5047449;28;20036;-60
2022/02/07 07:55:23;;;;;;;2.88;2.55;;;;;;;4.26;100.00;96486.81;5050655;28;20119;-60
2022/02/07 08:03:14;;;;;;;1.55;1.45;;;;;;;4.47;89.14;96507.41;5048806;28;20049;-59
2022/02/07 08:05:46;;;;;;;1.50;1.38;;;;;;;4.41;88.46;96503.38;5050639;28;20041;-60
2022/02/07 08:08:26;;;;;;;1.50;1.40;;;;;;;4.36;85.96;96511.44;5030547;28;20087;-60
2022/02/07 08:11:15;;;;;;;3.25;1.58;;;;;;;4.33;87.11;96516.81;5051349;28;20037;-60
2022/02/07 08:13:41;;;;;;;7.97;3.08;;;;;;;4.34;86.08;96523.72;5050784;28;20043;-60
2022/02/07 08:16:06;;;;;;;8.07;5.20;;;;;;;4.34;88.28;96538.53;5048341;28;20120;-60
2022/02/07 08:18:32;;;;;;;3.58;2.55;;;;;;;4.34;88.38;96533.31;5051709;28;20113;-60
2022/02/07 08:20:58;;;;;;;1.90;1.80;;;;;;;4.37;88.55;96538.34;5050571;28;20043;-60
2022/02/07 08:23:23;;;;;;;2.55;1.75;;;;;;;4.36;89.88;96541.88;5050923;28;20041;-60
2022/02/07 08:25:49;;;;;;;3.05;2.10;;;;;;;4.35;92.35;96538.44;5050300;28;20036;-59
2022/02/07 08:28:14;;;;;;;3.63;2.65;;;;;;;4.43;90.86;96532.81;5051402;28;20083;-59
2022/02/07 08:30:39;;;;;;;5.40;4.65;;;;;;;4.38;93.38;96534.81;5033891;28;20056;-60
2022/02/07 08:33:05;;;;;;;9.00;5.53;;;;;;;4.32;95.14;96542.97;5049731;28;20432;-60
2022/02/07 08:35:31;;;;;;;5.32;3.72;;;;;;;4.24;96.27;96548.59;5051135;28;20047;-60
2022/02/07 08:37:59;;;;;;;4.40;2.70;;;;;;;4.11;95.12;96546.63;5050985;28;20045;-60
2022/02/07 08:40:26;;;;;;;5.43;2.92;;;;;;;4.16;94.78;96547.22;5051591;28;20412;-60
2022/02/07 08:42:54;;;;;;;4.53;2.47;;;;;;;4.11;94.42;96554.44;5051103;28;20677;-60
2022/02/07 08:45:20;;;;;;;4.25;3.08;;;;;;;4.04;94.62;96568.75;5050349;28;20421;-60
2022/02/07 08:47:46;;;;;;;5.68;2.45;;;;;;;3.97;95.32;96578.63;5050585;28;20072;-60
2022/02/07 08:50:12;;;;;;;3.60;2.30;;;;;;;3.78;97.93;96586.56;5031424;28;20068;-60
2022/02/07 08:52:45;;;;;;;3.03;1.90;;;;;;;3.63;99.25;96585.53;5050826;28;20492;-60
2022/02/07 08:55:15;;;;;;;2.97;2.50;;;;;;;3.55;100.00;96593.75;5049442;28;20075;-60
2022/02/07 08:57:45;;;;;;;2.97;2.78;;;;;;;3.42;100.00;96601.31;5050553;28;20528;-59
2022/02/07 09:03:15;;;;;;;9.65;4.88;;;;;;;3.38;100.00;96605.00;5050308;28;20045;-59
2022/02/07 09:08:08;;;;;;;7.72;5.95;;;;;;;3.60;100.00;96609.13;5050296;28;20091;-59
2022/02/07 09:10:33;;;;;;;5.28;4.28;;;;;;;4.10;100.00;96606.69;5029485;28;20428;-59
2022/02/07 09:12:59;;;;;;;2.58;2.20;;;;;;;4.41;97.10;96598.06;5031640;28;20041;-60
2022/02/07 09:15:38;;;;;;;2.63;2.40;;;;;;;4.72;94.74;96606.00;5047053;28;20029;-60
2022/02/07 09:18:07;;;;;;;12.88;11.52;;;;;;;4.97;94.00;96604.66;5049980;28;20127;-59
2022/02/07 09:20:37;;;;;;;7.43;6.68;;;;;;;5.17;93.85;96603.56;5049999;28;20033;-60
2022/02/07 09:23:04;;;;;;;9.88;8.88;;;;;;;5.19;92.96;96609.53;5048557;28;20048;-60
2022/02/07 09:25:30;;;;;;;6.50;5.90;;;;;;;4.94;93.14;96613.53;5048908;28;20541;-59
2022/02/07 09:27:56;;;;;;;4.22;3.83;;;;;;;4.65;93.28;96621.19;5050238;28;20037;-59
2022/02/07 09:30:22;;;;;;;4.00;3.00;;;;;;;4.64;92.45;96616.03;5050606;28;20029;-60
2022/02/07 09:32:47;;;;;;;7.32;3.25;;;;;;;4.95;89.07;96607.38;5049446;28;20044;-59
2022/02/07 09:35:13;;;;;;;5.78;5.25;;;;;;;5.29;87.29;96609.88;5049681;28;20405;-59
2022/02/07 09:37:39;;;;;;;2.35;2.17;;;;;;;5.71;83.71;96610.09;5043737;28;20117;-60
2022/02/07 09:40:06;;;;;;;5.10;2.80;;;;;;;6.11;82.99;96606.97;5049529;28;20047;-60
2022/02/07 09:42:33;;;;;;;4.78;3.00;;;;;;;6.53;81.97;96609.66;5049616;28;20087;-60
2022/02/07 09:45:08;;;;;;;2.13;1.98;;;;;;;6.68;79.46;96613.09;5049146;28;20051;-60
2022/02/07 09:47:34;;;;;;;4.13;1.83;;;;;;;6.79;77.47;96612.44;5048853;28;20048;-60
2022/02/07 09:49:59;;;;;;;5.03;2.22;;;;;;;7.01;77.28;96617.19;5031432;28;20045;-60
2022/02/07 09:52:25;;;;;;;2.10;1.90;;;;;;;7.05;76.22;96623.91;5049336;28;20048;-60
2022/02/07 09:54:50;;;;;;;2.40;1.88;;;;;;;7.33;74.93;96616.91;5048008;28;20044;-61
2022/02/07 09:57:19;;;;;;;3.10;1.98;;;;;;;6.95;74.26;96620.16;5049326;28;20052;-60
2022/02/07 09:59:46;;;;;;;3.20;1.70;;;;;;;6.39;76.00;96620.97;5049104;28;20452;-60
2022/02/07 10:02:27;;;;;;;3.05;1.77;;;;;;;6.23;78.37;96618.47;5049066;28;20047;-61
2022/02/07 10:04:55;;;;;;;2.08;1.95;;;;;;;6.78;77.91;96626.47;5048036;28;20615;-61
2022/02/07 10:07:55;;;;;;;3.72;1.90;;;;;;;7.30;76.29;96632.81;5047754;28;20246;-60
2022/02/07 10:13:12;;;;;;;2.85;1.98;;;;;;;7.52;75.64;96653.25;5048919;28;20355;-60
2022/02/07 10:15:51;;;;;;;1.35;1.20;;;;;;;7.31;74.97;96658.06;5046809;28;20233;-60
2022/02/07 10:18:40;;;;;;;4.93;1.80;;;;;;;6.87;77.34;96660.78;5049034;28;20523;-60
2022/02/07 10:40:21;;;;;;;3.95;2.90;;;;;;;7.74;73.84;96636.13;5051817;28;20037;-60
2022/02/07 10:45:33;;;;;;;;;;;;;;;8.05;73.45;96627.97;5052274;28;20044;-61
2022/02/07 10:48:01;;;;;;;2.58;2.38;;;;;;;8.27;72.70;96627.38;5052977;28;19931;-60
2022/02/07 10:50:27;;;;;;;4.32;3.15;;;;;;;8.23;72.68;96618.84;5053357;28;20116;-60
2022/02/07 10:52:55;;;;;;;2.50;2.20;;;;;;;8.34;72.68;96618.13;5050567;28;20187;-61
2022/02/07 10:55:23;;;;;;;2.65;2.00;;;;;;;8.66;71.82;96624.75;5051595;28;20045;-61
2022/02/07 10:57:51;;;;;;;3.97;2.00;;;;;;;8.61;71.00;96619.81;5051939;28;20055;-62
2022/02/07 11:00:21;;;;;;;4.32;1.92;;;;;;;8.65;69.76;96625.69;5053037;28;20447;-61
2022/02/07 11:03:00;;;;;;;1.70;1.60;;;;;;;8.58;68.91;96636.63;5051442;28;20072;-61
2022/02/07 11:05:29;;;;;;;1.60;1.50;;;;;;;8.40;69.49;96633.47;5051856;28;20040;-60
2022/02/07 11:08:06;;;;;;;1.80;1.70;;;;;;;8.50;68.31;96631.06;5052125;28;20051;-62
2022/02/07 11:11:03;;;;;;;5.30;1.90;;;;;;;8.61;69.63;96627.69;5051705;28;20170;-62
2022/02/07 11:21:34;;;;;;;1.50;1.40;;;;;;;8.77;65.16;96627.47;5053124;28;20041;-62
2022/02/07 11:24:26;;;;;;;1.70;1.58;;;;;;;8.92;64.66;96635.19;5051762;28;20529;-62
2022/02/07 11:26:51;;;;;;;2.03;1.50;;;;;;;9.15;64.80;96639.66;5052575;28;20071;-63
2022/02/07 11:29:37;;;;;;;1.73;1.45;;;;;;;9.53;63.12;96627.34;5051164;28;20111;-62
2022/02/07 11:32:02;;;;;;;5.78;4.32;;;;;;;10.08;60.21;96631.25;5048517;28;20041;-61
2022/02/07 11:34:41;;;;;;;3.00;2.70;;;;;;;10.06;59.32;96639.25;5051070;28;20044;-61
2022/02/07 11:37:23;;;;;;;1.70;1.60;;;;;;;9.94;59.76;96648.88;5045437;28;20040;-61
2022/02/07 11:39:50;;;;;;;1.85;1.75;;;;;;;10.12;58.25;96641.41;5052698;28;20163;-62
2022/02/07 11:42:16;;;;;;;2.35;1.65;;;;;;;9.97;58.56;96634.69;5050847;28;20508;-59
2022/02/07 11:44:45;;;;;;;2.20;1.40;;;;;;;9.67;58.91;96650.00;5048336;28;20037;-60
2022/02/07 11:47:37;;;;;;;1.55;1.45;;;;;;;9.22;61.33;96645.31;5052110;28;20459;-60
2022/02/07 11:50:07;;;;;;;1.88;1.45;;;;;;;8.94;62.11;96657.78;5050542;28;20045;-60
2022/02/07 11:52:43;;;;;;;1.90;1.67;;;;;;;8.48;63.06;96651.28;5050873;28;20420;-59
2022/02/07 11:55:13;;;;;;;1.63;1.52;;;;;;;8.19;62.24;96648.03;5051071;28;20060;-59
2022/02/07 11:57:43;;;;;;;6.80;2.00;;;;;;;8.10;63.62;96645.09;5052007;28;20044;-59
2022/02/07 12:00:15;;;;;;;2.30;1.70;;;;;;;8.17;62.74;96648.97;5051041;28;20174;-59
2022/02/07 12:02:48;;;;;;;3.55;1.85;;;;;;;7.84;63.54;96650.28;5050342;28;20128;-59
2022/02/07 12:05:17;;;;;;;1.70;1.60;;;;;;;8.32;60.88;96641.00;5050067;28;20036;-59
2022/02/07 12:07:58;;;;;;;2.67;2.47;;;;;;;8.93;60.98;96635.09;5050574;28;20029;-59
2022/02/07 12:10:34;;;;;;;3.10;2.80;;;;;;;8.46;59.82;96640.06;5048714;28;20032;-60
2022/02/07 12:13:06;;;;;;;3.08;2.83;;;;;;;8.75;59.57;96637.25;5048851;28;20068;-60
2022/02/07 12:15:36;;;;;;;3.85;1.85;;;;;;;8.76;60.83;96638.94;5045064;28;20103;-59
2022/02/07 12:18:13;;;;;;;3.75;2.10;;;;;;;9.13;59.89;96638.94;5048471;28;20045;-60
2022/02/07 12:20:43;;;;;;;2.92;2.30;;;;;;;9.44;60.48;96633.25;5050189;28;20033;-60
2022/02/07 12:23:20;;;;;;;2.20;2.00;;;;;;;9.75;59.35;96623.94;5051365;28;20045;-60
2022/02/07 12:25:51;;;;;;;4.03;1.75;;;;;;;9.91;57.53;96609.66;5051439;28;20036;-60
2022/02/07 12:28:39;;;;;;;2.47;1.88;;;;;;;10.18;55.88;96605.91;5051248;28;20496;-60
2022/02/07 12:31:17;;;;;;;4.40;3.15;;;;;;;10.31;53.85;96601.38;5049412;28;20040;-60
2022/02/07 12:33:45;;;;;;;1.95;1.60;;;;;;;10.24;52.07;96600.16;5051397;28;20091;-60
2022/02/07 12:36:11;;;;;;;2.20;1.60;;;;;;;10.07;55.34;96593.56;5051445;28;20916;-61
2022/02/07 12:38:39;;;;;;;1.70;1.60;;;;;;;10.36;54.20;96598.38;5052054;28;20025;-60
2022/02/07 12:41:08;;;;;;;3.22;2.53;;;;;;;10.06;55.65;96591.03;5047574;28;20029;-61
2022/02/07 12:43:37;;;;;;;3.17;2.13;;;;;;;10.32;56.64;96592.53;5049416;28;20033;-61
2022/02/07 12:46:05;;;;;;;5.15;1.63;;;;;;;10.20;54.56;96601.34;5047983;28;20045;-61
2022/02/07 12:48:33;;;;;;;4.40;2.85;;;;;;;9.85;57.32;96602.25;5049334;28;20449;-61
2022/02/07 12:51:00;;;;;;;3.45;2.28;;;;;;;10.24;55.47;96612.50;5049212;28;20044;-61
2022/02/07 12:53:27;;;;;;;3.53;1.80;;;;;;;10.21;54.05;96613.56;5046570;28;20083;-60
2022/02/07 12:55:56;;;;;;;3.60;1.90;;;;;;;10.07;53.06;96611.16;5049258;28;20071;-61
2022/02/07 12:58:26;;;;;;;2.17;1.60;;;;;;;9.69;54.31;96600.75;5049191;28;20033;-60
2022/02/07 13:00:52;;;;;;;2.13;1.60;;;;;;;9.95;54.30;96592.69;5048953;28;20083;-60
2022/02/07 13:03:18;;;;;;;3.80;1.90;;;;;;;10.13;52.22;96597.53;5048953;28;20040;-61
2022/02/07 13:05:45;;;;;;;8.32;1.90;;;;;;;10.04;53.21;96599.88;5048871;28;20029;-61
2022/02/07 13:08:16;;;;;;;1.95;1.73;;;;;;;10.08;52.53;96599.66;5048760;28;20033;-61
2022/02/07 13:10:50;;;;;;;2.13;1.80;;;;;;;10.09;53.52;96604.78;5048684;28;20036;-60
2022/02/07 13:13:27;;;;;;;3.35;1.73;;;;;;;9.24;56.24;96600.56;5047535;28;20564;-60
2022/02/07 13:15:54;;;;;;;2.75;1.80;;;;;;;9.45;56.51;96604.25;5048553;28;20037;-60
2022/02/07 13:18:21;;;;;;;2.00;1.60;;;;;;;9.91;54.57;96609.66;5048798;28;20033;-60
2022/02/07 13:20:46;;;;;;;4.85;1.65;;;;;;;10.37;51.81;96605.31;5048596;28;20029;-60
2022/02/07 13:23:18;;;;;;;3.63;1.60;;;;;;;10.37;53.38;96599.22;5048394;28;20041;-61
2022/02/07 13:25:48;;;;;;;3.10;2.20;;;;;;;10.58;50.49;96594.97;5048635;28;20515;-60
2022/02/07 13:28:16;;;;;;;4.97;3.10;;;;;;;10.58;49.40;96602.84;5048392;28;20064;-60
2022/02/07 13:30:45;;;;;;;3.00;2.70;;;;;;;10.65;48.89;96610.28;5048517;28;20041;-60
2022/02/07 13:33:11;;;;;;;5.38;1.63;;;;;;;10.89;49.32;96610.97;5048335;28;20511;-60
2022/02/07 13:35:43;;;;;;;2.45;2.20;;;;;;;10.92;48.65;96606.41;5049034;28;20037;-60
2022/02/07 13:38:11;;;;;;;2.85;1.70;;;;;;;10.74;47.25;96622.75;5049293;28;20068;-60
2022/02/07 13:40:46;;;;;;;4.93;2.10;;;;;;;10.71;47.76;96625.59;5049253;28;20037;-61
2022/02/07 13:43:30;;;;;;;1.65;1.55;;;;;;;10.71;46.48;96621.16;5048741;28;20037;-60
2022/02/07 13:45:57;;;;;;;1.48;1.38;;;;;;;10.41;46.59;96633.13;5048087;28;20067;-60
2022/02/07 13:48:25;;;;;;;2.00;1.80;;;;;;;9.61;48.96;96632.00;5048752;28;20501;-60
2022/02/07 13:50:56;;;;;;;3.78;1.55;;;;;;;9.11;50.74;96630.31;5048670;28;20099;-60
2022/02/07 13:53:24;;;;;;;4.28;1.60;;;;;;;8.87;51.59;96612.72;5048835;28;20041;-60
2022/02/07 13:55:52;;;;;;;2.35;2.10;;;;;;;8.77;51.22;96605.63;5048731;28;20178;-60
2022/02/07 13:58:38;;;;;;;6.07;2.03;;;;;;;8.77;51.88;96634.50;5048589;28;20055;-60
2022/02/07 14:01:14;;;;;;;2.63;1.88;;;;;;;8.66;52.40;96628.22;5048303;28;20127;-60
2022/02/07 14:03:42;;;;;;;4.72;2.22;;;;;;;8.66;52.86;96617.72;5029605;28;20076;-60
2022/02/07 14:06:12;;;;;;;2.40;1.70;;;;;;;8.67;51.99;96626.44;5025376;28;20857;-59
2022/02/07 14:08:38;;;;;;;2.88;2.00;;;;;;;8.42;52.75;96643.84;5046040;28;20115;-59